sensor_id;sensor_type;location;lat;lon;timestamp;temperature;humidity
1988;DHT22;12775;46.994;15.498;2022-12-07T00:01:07;5.70;99.90
1988;DHT22;12775;46.994;15.498;2022-12-07T00:03:33;5.80;99.90
1988;DHT22;12775;46.994;15.498;2022-12-07T00:06:01;5.80;99.90
1988;DHT22;12775;46.994;15.498;2022-12-07T00:08:28;5.80;99.90
1988;DHT22;12775;46.994;15.498;2022-12-07T00:11:04;5.80;99.90
1988;DHT22;12775;46.994;15.498;2022-12-07T00:13:32;5.80;99.90
1988;DHT22;12775;46.994;15.498;2022-12-07T00:16:00;5.80;99.90
1988;DHT22;12775;46.994;15.498;2022-12-07T00:18:27;5.80;99.90
1988;DHT22;12775;46.994;15.498;2022-12-07T00:20:58;5.80;99.90
1988;DHT22;12775;46.994;15.498;2022-12-07T00:23:21;5.80;99.90
1988;DHT22;12775;46.994;15.498;2022-12-07T00:25:49;5.80;99.90
1988;DHT22;12775;46.994;15.498;2022-12-07T00:28:16;5.80;99.90
1988;DHT22;12775;46.994;15.498;2022-12-07T00:30:43;5.70;99.90
1988;DHT22;12775;46.994;15.498;2022-12-07T00:33:11;5.70;99.90
1988;DHT22;12775;46.994;15.498;2022-12-07T00:35:38;5.70;99.90
1988;DHT22;12775;46.994;15.498;2022-12-07T00:38:06;5.60;99.90
1988;DHT22;12775;46.994;15.498;2022-12-07T00:40:33;5.70;99.90
1988;DHT22;12775;46.994;15.498;2022-12-07T00:43:00;5.70;99.90
1988;DHT22;12775;46.994;15.498;2022-12-07T00:45:28;5.60;99.90
1988;DHT22;12775;46.994;15.498;2022-12-07T00:47:55;5.70;99.90
1988;DHT22;12775;46.994;15.498;2022-12-07T00:50:22;5.70;99.90
1988;DHT22;12775;46.994;15.498;2022-12-07T00:52:50;5.70;99.90
1988;DHT22;12775;46.994;15.498;2022-12-07T00:55:17;5.70;99.90
1988;DHT22;12775;46.994;15.498;2022-12-07T00:57:45;5.70;99.90
1988;DHT22;12775;46.994;15.498;2022-12-07T01:00:12;5.60;99.90
1988;DHT22;12775;46.994;15.498;2022-12-07T01:02:40;5.50;99.90
1988;DHT22;12775;46.994;15.498;2022-12-07T01:05:08;5.60;99.90
1988;DHT22;12775;46.994;15.498;2022-12-07T01:07:35;5.60;99.90
1988;DHT22;12775;46.994;15.498;2022-12-07T01:10:03;5.50;99.90
1988;DHT22;12775;46.994;15.498;2022-12-07T01:12:30;5.50;99.90
1988;DHT22;12775;46.994;15.498;2022-12-07T01:14:58;5.50;99.90
1988;DHT22;12775;46.994;15.498;2022-12-07T01:17:25;5.50;99.90
1988;DHT22;12775;46.994;15.498;2022-12-07T01:19:53;5.40;99.90
1988;DHT22;12775;46.994;15.498;2022-12-07T01:22:20;5.40;99.90
1988;DHT22;12775;46.994;15.498;2022-12-07T01:24:47;5.30;99.90
1988;DHT22;12775;46.994;15.498;2022-12-07T01:27:15;5.10;99.90
1988;DHT22;12775;46.994;15.498;2022-12-07T01:29:42;5.20;99.90
1988;DHT22;12775;46.994;15.498;2022-12-07T01:32:10;5.20;99.90
1988;DHT22;12775;46.994;15.498;2022-12-07T01:34:38;5.20;99.90
1988;DHT22;12775;46.994;15.498;2022-12-07T01:37:05;5.30;99.90
1988;DHT22;12775;46.994;15.498;2022-12-07T01:39:32;5.30;99.90
1988;DHT22;12775;46.994;15.498;2022-12-07T01:42:00;5.30;99.90
1988;DHT22;12775;46.994;15.498;2022-12-07T01:44:28;5.20;99.90
1988;DHT22;12775;46.994;15.498;2022-12-07T01:46:56;5.20;99.90
1988;DHT22;12775;46.994;15.498;2022-12-07T01:49:41;5.30;99.90
1988;DHT22;12775;46.994;15.498;2022-12-07T01:52:17;5.30;99.90
1988;DHT22;12775;46.994;15.498;2022-12-07T01:54:43;5.30;99.90
1988;DHT22;12775;46.994;15.498;2022-12-07T01:57:10;5.30;99.90
1988;DHT22;12775;46.994;15.498;2022-12-07T01:59:37;5.30;99.90
1988;DHT22;12775;46.994;15.498;2022-12-07T02:02:06;5.30;99.90
1988;DHT22;12775;46.994;15.498;2022-12-07T02:04:32;5.30;99.90
1988;DHT22;12775;46.994;15.498;2022-12-07T02:06:59;5.10;99.90
1988;DHT22;12775;46.994;15.498;2022-12-07T02:09:27;5.20;99.90
1988;DHT22;12775;46.994;15.498;2022-12-07T02:11:54;5.10;99.90
1988;DHT22;12775;46.994;15.498;2022-12-07T02:14:21;5.20;99.90
1988;DHT22;12775;46.994;15.498;2022-12-07T02:16:59;5.20;99.90
1988;DHT22;12775;46.994;15.498;2022-12-07T02:19:29;5.20;99.90
1988;DHT22;12775;46.994;15.498;2022-12-07T02:21:53;5.30;99.90
1988;DHT22;12775;46.994;15.498;2022-12-07T02:24:30;5.30;99.90
1988;DHT22;12775;46.994;15.498;2022-12-07T02:27:03;5.30;99.90
1988;DHT22;12775;46.994;15.498;2022-12-07T02:29:39;5.40;99.90
1988;DHT22;12775;46.994;15.498;2022-12-07T02:32:14;5.30;99.90
1988;DHT22;12775;46.994;15.498;2022-12-07T02:34:48;5.30;99.90
1988;DHT22;12775;46.994;15.498;2022-12-07T02:37:19;5.30;99.90
1988;DHT22;12775;46.994;15.498;2022-12-07T02:39:49;5.30;99.90
1988;DHT22;12775;46.994;15.498;2022-12-07T02:42:17;5.30;99.90
1988;DHT22;12775;46.994;15.498;2022-12-07T02:44:43;5.30;99.90
1988;DHT22;12775;46.994;15.498;2022-12-07T02:47:10;5.30;99.90
1988;DHT22;12775;46.994;15.498;2022-12-07T02:49:38;5.30;99.90
1988;DHT22;12775;46.994;15.498;2022-12-07T02:52:05;5.30;99.90
1988;DHT22;12775;46.994;15.498;2022-12-07T02:54:32;5.30;99.90
1988;DHT22;12775;46.994;15.498;2022-12-07T02:59:53;5.30;99.90
1988;DHT22;12775;46.994;15.498;2022-12-07T03:02:24;5.10;99.90
1988;DHT22;12775;46.994;15.498;2022-12-07T03:07:37;5.10;99.90
1988;DHT22;12775;46.994;15.498;2022-12-07T03:10:03;5.00;99.90
1988;DHT22;12775;46.994;15.498;2022-12-07T03:12:32;4.90;99.90
1988;DHT22;12775;46.994;15.498;2022-12-07T03:15:02;5.00;99.90
1988;DHT22;12775;46.994;15.498;2022-12-07T03:17:25;5.00;99.90
1988;DHT22;12775;46.994;15.498;2022-12-07T03:19:52;5.00;99.90
1988;DHT22;12775;46.994;15.498;2022-12-07T03:22:19;5.00;99.90
1988;DHT22;12775;46.994;15.498;2022-12-07T03:24:50;5.00;99.90
1988;DHT22;12775;46.994;15.498;2022-12-07T03:27:18;5.00;99.90
1988;DHT22;12775;46.994;15.498;2022-12-07T03:29:48;4.90;99.90
1988;DHT22;12775;46.994;15.498;2022-12-07T03:32:33;4.90;99.90
1988;DHT22;12775;46.994;15.498;2022-12-07T03:35:07;5.00;99.90
1988;DHT22;12775;46.994;15.498;2022-12-07T03:37:34;5.00;99.90
1988;DHT22;12775;46.994;15.498;2022-12-07T03:40:07;5.00;99.90
1988;DHT22;12775;46.994;15.498;2022-12-07T03:42:31;4.90;99.90
1988;DHT22;12775;46.994;15.498;2022-12-07T03:44:59;4.90;99.90
1988;DHT22;12775;46.994;15.498;2022-12-07T03:47:46;4.90;99.90
1988;DHT22;12775;46.994;15.498;2022-12-07T03:50:14;5.00;99.90
1988;DHT22;12775;46.994;15.498;2022-12-07T03:52:42;5.00;99.90
1988;DHT22;12775;46.994;15.498;2022-12-07T03:55:18;4.80;99.90
1988;DHT22;12775;46.994;15.498;2022-12-07T03:57:47;4.90;99.90
1988;DHT22;12775;46.994;15.498;2022-12-07T04:00:15;4.80;99.90
1988;DHT22;12775;46.994;15.498;2022-12-07T04:02:42;4.70;99.90
1988;DHT22;12775;46.994;15.498;2022-12-07T04:05:09;4.70;99.90
1988;DHT22;12775;46.994;15.498;2022-12-07T04:07:37;4.70;99.90
1988;DHT22;12775;46.994;15.498;2022-12-07T04:10:05;4.60;99.90
1988;DHT22;12775;46.994;15.498;2022-12-07T04:12:32;4.60;99.90
1988;DHT22;12775;46.994;15.498;2022-12-07T04:14:59;4.60;99.90
1988;DHT22;12775;46.994;15.498;2022-12-07T04:17:27;4.60;99.90
1988;DHT22;12775;46.994;15.498;2022-12-07T04:19:54;4.60;99.90
1988;DHT22;12775;46.994;15.498;2022-12-07T04:22:22;4.60;99.90
1988;DHT22;12775;46.994;15.498;2022-12-07T04:24:49;4.60;99.90
1988;DHT22;12775;46.994;15.498;2022-12-07T04:27:16;4.60;99.90
1988;DHT22;12775;46.994;15.498;2022-12-07T04:29:44;4.60;99.90
1988;DHT22;12775;46.994;15.498;2022-12-07T04:32:11;4.60;99.90
1988;DHT22;12775;46.994;15.498;2022-12-07T04:34:38;4.60;99.90
1988;DHT22;12775;46.994;15.498;2022-12-07T04:37:06;4.60;99.90
1988;DHT22;12775;46.994;15.498;2022-12-07T04:39:33;4.60;99.90
1988;DHT22;12775;46.994;15.498;2022-12-07T04:42:01;4.70;99.90
1988;DHT22;12775;46.994;15.498;2022-12-07T04:44:28;4.70;99.90
1988;DHT22;12775;46.994;15.498;2022-12-07T04:46:55;4.60;99.90
1988;DHT22;12775;46.994;15.498;2022-12-07T04:49:23;4.70;99.90
1988;DHT22;12775;46.994;15.498;2022-12-07T04:51:50;4.80;99.90
1988;DHT22;12775;46.994;15.498;2022-12-07T04:54:18;4.70;99.90
1988;DHT22;12775;46.994;15.498;2022-12-07T04:56:45;4.70;99.90
1988;DHT22;12775;46.994;15.498;2022-12-07T04:59:13;4.80;99.90
1988;DHT22;12775;46.994;15.498;2022-12-07T05:01:40;4.80;99.90
1988;DHT22;12775;46.994;15.498;2022-12-07T05:04:07;4.80;99.90
1988;DHT22;12775;46.994;15.498;2022-12-07T05:06:35;4.70;99.90
1988;DHT22;12775;46.994;15.498;2022-12-07T05:09:02;4.70;99.90
1988;DHT22;12775;46.994;15.498;2022-12-07T05:11:29;4.80;99.90
1988;DHT22;12775;46.994;15.498;2022-12-07T05:14:03;4.70;99.90
1988;DHT22;12775;46.994;15.498;2022-12-07T05:16:30;4.70;99.90
1988;DHT22;12775;46.994;15.498;2022-12-07T05:18:57;4.60;99.90
1988;DHT22;12775;46.994;15.498;2022-12-07T05:21:25;4.70;99.90
1988;DHT22;12775;46.994;15.498;2022-12-07T05:23:52;4.60;99.90
1988;DHT22;12775;46.994;15.498;2022-12-07T05:26:19;4.60;99.90
1988;DHT22;12775;46.994;15.498;2022-12-07T05:28:50;4.50;99.90
1988;DHT22;12775;46.994;15.498;2022-12-07T05:31:17;4.60;99.90
1988;DHT22;12775;46.994;15.498;2022-12-07T05:33:44;4.50;99.90
1988;DHT22;12775;46.994;15.498;2022-12-07T05:36:12;4.50;99.90
1988;DHT22;12775;46.994;15.498;2022-12-07T05:38:39;4.50;99.90
1988;DHT22;12775;46.994;15.498;2022-12-07T05:41:07;4.50;99.90
1988;DHT22;12775;46.994;15.498;2022-12-07T05:43:34;4.60;99.90
1988;DHT22;12775;46.994;15.498;2022-12-07T05:46:01;4.70;99.90
1988;DHT22;12775;46.994;15.498;2022-12-07T05:48:29;4.70;99.90
1988;DHT22;12775;46.994;15.498;2022-12-07T05:50:56;4.70;99.90
1988;DHT22;12775;46.994;15.498;2022-12-07T05:53:23;4.70;99.90
1988;DHT22;12775;46.994;15.498;2022-12-07T05:55:51;4.70;99.90
1988;DHT22;12775;46.994;15.498;2022-12-07T05:58:18;4.70;99.90
1988;DHT22;12775;46.994;15.498;2022-12-07T06:00:51;4.70;99.90
1988;DHT22;12775;46.994;15.498;2022-12-07T06:03:18;4.70;99.90
1988;DHT22;12775;46.994;15.498;2022-12-07T06:05:45;4.80;99.90
1988;DHT22;12775;46.994;15.498;2022-12-07T06:08:13;4.80;99.90
1988;DHT22;12775;46.994;15.498;2022-12-07T06:10:40;4.80;99.90
1988;DHT22;12775;46.994;15.498;2022-12-07T06:13:08;4.70;99.90
1988;DHT22;12775;46.994;15.498;2022-12-07T06:15:36;4.70;99.90
1988;DHT22;12775;46.994;15.498;2022-12-07T06:18:02;4.70;99.90
1988;DHT22;12775;46.994;15.498;2022-12-07T06:20:30;4.70;99.90
1988;DHT22;12775;46.994;15.498;2022-12-07T06:22:57;4.70;99.90
1988;DHT22;12775;46.994;15.498;2022-12-07T06:25:24;4.80;99.90
1988;DHT22;12775;46.994;15.498;2022-12-07T06:27:52;4.70;99.90
1988;DHT22;12775;46.994;15.498;2022-12-07T06:30:19;4.70;99.90
1988;DHT22;12775;46.994;15.498;2022-12-07T06:32:46;4.60;99.90
1988;DHT22;12775;46.994;15.498;2022-12-07T06:35:14;4.40;99.90
1988;DHT22;12775;46.994;15.498;2022-12-07T06:37:41;4.20;99.90
1988;DHT22;12775;46.994;15.498;2022-12-07T06:40:09;4.30;99.90
1988;DHT22;12775;46.994;15.498;2022-12-07T06:42:36;4.30;99.90
1988;DHT22;12775;46.994;15.498;2022-12-07T06:45:03;4.20;99.90
1988;DHT22;12775;46.994;15.498;2022-12-07T06:47:31;4.10;99.90
1988;DHT22;12775;46.994;15.498;2022-12-07T06:49:58;4.10;99.90
1988;DHT22;12775;46.994;15.498;2022-12-07T06:52:26;4.10;99.90
1988;DHT22;12775;46.994;15.498;2022-12-07T06:54:53;4.20;99.90
1988;DHT22;12775;46.994;15.498;2022-12-07T06:57:20;4.20;99.90
1988;DHT22;12775;46.994;15.498;2022-12-07T06:59:48;4.30;99.90
1988;DHT22;12775;46.994;15.498;2022-12-07T07:02:15;4.20;99.90
1988;DHT22;12775;46.994;15.498;2022-12-07T07:04:42;4.20;99.90
1988;DHT22;12775;46.994;15.498;2022-12-07T07:07:10;4.20;99.90
1988;DHT22;12775;46.994;15.498;2022-12-07T07:09:37;4.20;99.90
1988;DHT22;12775;46.994;15.498;2022-12-07T07:12:04;4.20;99.90
1988;DHT22;12775;46.994;15.498;2022-12-07T07:14:32;4.20;99.90
1988;DHT22;12775;46.994;15.498;2022-12-07T07:16:59;4.20;99.90
1988;DHT22;12775;46.994;15.498;2022-12-07T07:19:27;4.30;99.90
1988;DHT22;12775;46.994;15.498;2022-12-07T07:21:55;4.20;99.90
1988;DHT22;12775;46.994;15.498;2022-12-07T07:24:22;4.20;99.90
1988;DHT22;12775;46.994;15.498;2022-12-07T07:26:50;4.20;99.90
1988;DHT22;12775;46.994;15.498;2022-12-07T07:29:17;4.10;99.90
1988;DHT22;12775;46.994;15.498;2022-12-07T07:31:44;4.00;99.90
1988;DHT22;12775;46.994;15.498;2022-12-07T07:34:12;4.00;99.90
1988;DHT22;12775;46.994;15.498;2022-12-07T07:36:39;4.10;99.90
1988;DHT22;12775;46.994;15.498;2022-12-07T07:39:06;4.00;99.90
1988;DHT22;12775;46.994;15.498;2022-12-07T07:41:34;4.00;99.90
1988;DHT22;12775;46.994;15.498;2022-12-07T07:44:01;4.10;99.90
1988;DHT22;12775;46.994;15.498;2022-12-07T07:46:29;4.20;99.90
1988;DHT22;12775;46.994;15.498;2022-12-07T07:48:56;4.10;99.90
1988;DHT22;12775;46.994;15.498;2022-12-07T07:51:23;4.10;99.90
1988;DHT22;12775;46.994;15.498;2022-12-07T07:53:51;4.00;99.90
1988;DHT22;12775;46.994;15.498;2022-12-07T07:56:18;4.00;99.90
1988;DHT22;12775;46.994;15.498;2022-12-07T07:58:45;3.90;99.90
1988;DHT22;12775;46.994;15.498;2022-12-07T08:01:13;3.90;99.90
1988;DHT22;12775;46.994;15.498;2022-12-07T08:03:41;3.90;99.90
1988;DHT22;12775;46.994;15.498;2022-12-07T08:06:08;3.80;99.90
1988;DHT22;12775;46.994;15.498;2022-12-07T08:08:36;3.70;99.90
1988;DHT22;12775;46.994;15.498;2022-12-07T08:11:06;3.80;99.90
1988;DHT22;12775;46.994;15.498;2022-12-07T08:13:33;3.90;99.90
1988;DHT22;12775;46.994;15.498;2022-12-07T08:16:04;3.90;99.90
1988;DHT22;12775;46.994;15.498;2022-12-07T08:18:31;4.00;99.90
1988;DHT22;12775;46.994;15.498;2022-12-07T08:20:59;4.00;99.90
1988;DHT22;12775;46.994;15.498;2022-12-07T08:23:26;3.90;99.90
1988;DHT22;12775;46.994;15.498;2022-12-07T08:25:54;3.90;99.90
1988;DHT22;12775;46.994;15.498;2022-12-07T08:28:21;4.00;99.90
1988;DHT22;12775;46.994;15.498;2022-12-07T08:30:48;4.00;99.90
1988;DHT22;12775;46.994;15.498;2022-12-07T08:33:16;4.00;99.90
1988;DHT22;12775;46.994;15.498;2022-12-07T08:35:43;4.10;99.90
1988;DHT22;12775;46.994;15.498;2022-12-07T08:38:11;4.20;99.90
1988;DHT22;12775;46.994;15.498;2022-12-07T08:40:38;4.20;99.90
1988;DHT22;12775;46.994;15.498;2022-12-07T08:43:05;4.30;99.90
1988;DHT22;12775;46.994;15.498;2022-12-07T08:45:33;4.40;99.90
1988;DHT22;12775;46.994;15.498;2022-12-07T08:48:04;4.50;99.90
1988;DHT22;12775;46.994;15.498;2022-12-07T08:50:31;4.50;99.90
1988;DHT22;12775;46.994;15.498;2022-12-07T08:52:58;4.50;99.90
1988;DHT22;12775;46.994;15.498;2022-12-07T08:55:25;4.50;99.90
1988;DHT22;12775;46.994;15.498;2022-12-07T08:57:52;4.50;99.90
1988;DHT22;12775;46.994;15.498;2022-12-07T09:00:20;4.50;99.90
1988;DHT22;12775;46.994;15.498;2022-12-07T09:02:47;4.60;99.90
1988;DHT22;12775;46.994;15.498;2022-12-07T09:05:15;4.60;99.90
1988;DHT22;12775;46.994;15.498;2022-12-07T09:07:43;4.60;99.90
1988;DHT22;12775;46.994;15.498;2022-12-07T09:10:10;4.60;99.90
1988;DHT22;12775;46.994;15.498;2022-12-07T09:12:37;4.60;99.90
1988;DHT22;12775;46.994;15.498;2022-12-07T09:15:06;4.60;99.90
1988;DHT22;12775;46.994;15.498;2022-12-07T09:17:33;4.70;99.90
1988;DHT22;12775;46.994;15.498;2022-12-07T09:20:01;4.60;99.90
1988;DHT22;12775;46.994;15.498;2022-12-07T09:22:29;4.60;99.90
1988;DHT22;12775;46.994;15.498;2022-12-07T09:24:57;4.70;99.90
1988;DHT22;12775;46.994;15.498;2022-12-07T09:27:24;4.70;99.90
1988;DHT22;12775;46.994;15.498;2022-12-07T09:29:52;4.70;99.90
1988;DHT22;12775;46.994;15.498;2022-12-07T09:32:19;4.70;99.90
1988;DHT22;12775;46.994;15.498;2022-12-07T09:34:46;4.80;99.90
1988;DHT22;12775;46.994;15.498;2022-12-07T09:37:14;4.80;99.90
1988;DHT22;12775;46.994;15.498;2022-12-07T09:39:41;4.90;99.90
1988;DHT22;12775;46.994;15.498;2022-12-07T09:42:08;5.00;99.90
1988;DHT22;12775;46.994;15.498;2022-12-07T09:44:36;5.00;99.90
1988;DHT22;12775;46.994;15.498;2022-12-07T09:47:03;5.10;99.90
1988;DHT22;12775;46.994;15.498;2022-12-07T09:49:31;5.10;99.90
1988;DHT22;12775;46.994;15.498;2022-12-07T09:52:16;5.10;99.90
1988;DHT22;12775;46.994;15.498;2022-12-07T09:54:33;5.10;99.90
1988;DHT22;12775;46.994;15.498;2022-12-07T09:56:59;5.20;99.90
1988;DHT22;12775;46.994;15.498;2022-12-07T09:59:27;5.10;99.90
1988;DHT22;12775;46.994;15.498;2022-12-07T10:01:54;5.10;99.90
1988;DHT22;12775;46.994;15.498;2022-12-07T10:04:23;5.20;99.90
1988;DHT22;12775;46.994;15.498;2022-12-07T10:06:50;5.10;99.90
1988;DHT22;12775;46.994;15.498;2022-12-07T10:09:19;5.20;99.90
1988;DHT22;12775;46.994;15.498;2022-12-07T10:14:24;5.30;99.90
1988;DHT22;12775;46.994;15.498;2022-12-07T10:16:51;5.30;99.90
1988;DHT22;12775;46.994;15.498;2022-12-07T10:22:04;5.30;99.90
1988;DHT22;12775;46.994;15.498;2022-12-07T10:24:30;5.30;99.90
1988;DHT22;12775;46.994;15.498;2022-12-07T10:26:57;5.30;99.90
1988;DHT22;12775;46.994;15.498;2022-12-07T10:29:31;5.30;99.90
1988;DHT22;12775;46.994;15.498;2022-12-07T10:31:58;5.40;99.90
1988;DHT22;12775;46.994;15.498;2022-12-07T10:34:30;5.50;99.90
1988;DHT22;12775;46.994;15.498;2022-12-07T10:37:22;5.50;99.90
1988;DHT22;12775;46.994;15.498;2022-12-07T10:39:52;5.50;99.90
1988;DHT22;12775;46.994;15.498;2022-12-07T10:42:24;5.50;99.90
1988;DHT22;12775;46.994;15.498;2022-12-07T10:47:33;5.50;99.90
1988;DHT22;12775;46.994;15.498;2022-12-07T10:53:07;5.50;99.90
1988;DHT22;12775;46.994;15.498;2022-12-07T10:55:54;5.50;99.90
1988;DHT22;12775;46.994;15.498;2022-12-07T10:58:24;5.60;99.90
1988;DHT22;12775;46.994;15.498;2022-12-07T11:01:10;5.70;99.90
1988;DHT22;12775;46.994;15.498;2022-12-07T11:06:23;5.70;99.90
1988;DHT22;12775;46.994;15.498;2022-12-07T11:08:55;5.80;99.90
1988;DHT22;12775;46.994;15.498;2022-12-07T11:11:38;5.90;99.90
1988;DHT22;12775;46.994;15.498;2022-12-07T11:14:11;5.80;99.90
1988;DHT22;12775;46.994;15.498;2022-12-07T11:16:47;5.90;99.90
1988;DHT22;12775;46.994;15.498;2022-12-07T11:19:24;6.00;99.90
1988;DHT22;12775;46.994;15.498;2022-12-07T11:21:56;6.10;99.90
1988;DHT22;12775;46.994;15.498;2022-12-07T11:24:23;6.00;99.90
1988;DHT22;12775;46.994;15.498;2022-12-07T11:26:52;6.00;99.90
1988;DHT22;12775;46.994;15.498;2022-12-07T11:32:14;6.20;99.90
1988;DHT22;12775;46.994;15.498;2022-12-07T11:34:50;6.30;99.90
1988;DHT22;12775;46.994;15.498;2022-12-07T11:37:15;6.40;99.90
1988;DHT22;12775;46.994;15.498;2022-12-07T11:39:47;6.40;99.90
1988;DHT22;12775;46.994;15.498;2022-12-07T11:42:21;6.50;99.90
1988;DHT22;12775;46.994;15.498;2022-12-07T11:44:56;6.60;99.90
1988;DHT22;12775;46.994;15.498;2022-12-07T11:47:32;6.60;99.90
1988;DHT22;12775;46.994;15.498;2022-12-07T11:50:03;6.50;99.90
1988;DHT22;12775;46.994;15.498;2022-12-07T11:52:39;6.70;99.90
1988;DHT22;12775;46.994;15.498;2022-12-07T11:55:03;6.80;99.90
1988;DHT22;12775;46.994;15.498;2022-12-07T11:57:37;6.90;99.90
1988;DHT22;12775;46.994;15.498;2022-12-07T12:00:05;6.90;99.90
1988;DHT22;12775;46.994;15.498;2022-12-07T12:02:37;6.90;99.90
1988;DHT22;12775;46.994;15.498;2022-12-07T12:07:35;7.10;99.90
1988;DHT22;12775;46.994;15.498;2022-12-07T12:10:06;7.20;99.90
1988;DHT22;12775;46.994;15.498;2022-12-07T12:15:34;7.30;99.90
1988;DHT22;12775;46.994;15.498;2022-12-07T12:18:05;7.40;99.90
1988;DHT22;12775;46.994;15.498;2022-12-07T12:20:30;7.50;99.90
1988;DHT22;12775;46.994;15.498;2022-12-07T12:22:59;7.50;99.90
1988;DHT22;12775;46.994;15.498;2022-12-07T12:25:28;7.60;99.90
1988;DHT22;12775;46.994;15.498;2022-12-07T12:27:55;7.70;99.90
1988;DHT22;12775;46.994;15.498;2022-12-07T12:30:35;7.70;99.90
1988;DHT22;12775;46.994;15.498;2022-12-07T12:33:02;7.80;99.90
1988;DHT22;12775;46.994;15.498;2022-12-07T12:35:30;7.80;99.90
1988;DHT22;12775;46.994;15.498;2022-12-07T12:38:20;7.80;99.90
1988;DHT22;12775;46.994;15.498;2022-12-07T12:40:38;7.70;99.90
1988;DHT22;12775;46.994;15.498;2022-12-07T12:43:14;7.80;99.90
1988;DHT22;12775;46.994;15.498;2022-12-07T12:45:33;7.80;99.90
1988;DHT22;12775;46.994;15.498;2022-12-07T12:48:04;7.90;99.90
1988;DHT22;12775;46.994;15.498;2022-12-07T12:50:33;7.80;99.90
1988;DHT22;12775;46.994;15.498;2022-12-07T12:53:24;7.80;99.90
1988;DHT22;12775;46.994;15.498;2022-12-07T12:58:41;7.60;99.90
1988;DHT22;12775;46.994;15.498;2022-12-07T13:03:53;7.70;99.90
1988;DHT22;12775;46.994;15.498;2022-12-07T13:06:35;7.70;99.90
1988;DHT22;12775;46.994;15.498;2022-12-07T13:09:02;7.60;99.90
1988;DHT22;12775;46.994;15.498;2022-12-07T13:11:35;7.70;99.90
1988;DHT22;12775;46.994;15.498;2022-12-07T13:16:41;7.60;99.90
1988;DHT22;12775;46.994;15.498;2022-12-07T13:24:48;7.70;99.90
1988;DHT22;12775;46.994;15.498;2022-12-07T13:27:15;7.70;99.90
1988;DHT22;12775;46.994;15.498;2022-12-07T13:29:42;7.70;99.90
1988;DHT22;12775;46.994;15.498;2022-12-07T13:32:17;7.70;99.90
1988;DHT22;12775;46.994;15.498;2022-12-07T13:34:37;7.80;99.90
1988;DHT22;12775;46.994;15.498;2022-12-07T13:37:12;7.80;99.90
1988;DHT22;12775;46.994;15.498;2022-12-07T13:39:45;7.80;99.90
1988;DHT22;12775;46.994;15.498;2022-12-07T13:42:19;7.70;99.90
1988;DHT22;12775;46.994;15.498;2022-12-07T13:44:42;7.70;99.90
1988;DHT22;12775;46.994;15.498;2022-12-07T13:47:49;7.80;99.90
1988;DHT22;12775;46.994;15.498;2022-12-07T13:49:59;7.80;99.90
1988;DHT22;12775;46.994;15.498;2022-12-07T13:52:28;7.80;99.90
1988;DHT22;12775;46.994;15.498;2022-12-07T13:55:00;7.90;99.90
1988;DHT22;12775;46.994;15.498;2022-12-07T13:57:27;7.90;99.90
1988;DHT22;12775;46.994;15.498;2022-12-07T13:59:53;7.90;99.90
1988;DHT22;12775;46.994;15.498;2022-12-07T14:02:24;7.90;99.90
1988;DHT22;12775;46.994;15.498;2022-12-07T14:04:50;7.90;99.90
1988;DHT22;12775;46.994;15.498;2022-12-07T14:07:24;7.90;99.90
1988;DHT22;12775;46.994;15.498;2022-12-07T14:10:00;7.90;99.90
1988;DHT22;12775;46.994;15.498;2022-12-07T14:12:26;7.90;99.90
1988;DHT22;12775;46.994;15.498;2022-12-07T14:14:53;7.90;99.90
1988;DHT22;12775;46.994;15.498;2022-12-07T14:17:22;7.90;99.90
1988;DHT22;12775;46.994;15.498;2022-12-07T14:19:49;8.00;99.90
1988;DHT22;12775;46.994;15.498;2022-12-07T14:22:27;8.00;99.90
1988;DHT22;12775;46.994;15.498;2022-12-07T14:25:14;8.00;99.90
1988;DHT22;12775;46.994;15.498;2022-12-07T14:27:31;8.10;99.90
1988;DHT22;12775;46.994;15.498;2022-12-07T14:29:58;8.10;99.90
1988;DHT22;12775;46.994;15.498;2022-12-07T14:32:26;8.00;99.90
1988;DHT22;12775;46.994;15.498;2022-12-07T14:35:01;8.10;99.90
1988;DHT22;12775;46.994;15.498;2022-12-07T14:37:27;8.10;99.90
1988;DHT22;12775;46.994;15.498;2022-12-07T14:39:54;8.10;99.90
1988;DHT22;12775;46.994;15.498;2022-12-07T14:42:23;8.10;99.90
1988;DHT22;12775;46.994;15.498;2022-12-07T14:44:49;8.10;99.90
1988;DHT22;12775;46.994;15.498;2022-12-07T14:47:16;8.10;99.90
1988;DHT22;12775;46.994;15.498;2022-12-07T14:49:45;8.10;99.90
1988;DHT22;12775;46.994;15.498;2022-12-07T14:52:16;8.10;99.90
1988;DHT22;12775;46.994;15.498;2022-12-07T14:54:43;8.10;99.90
1988;DHT22;12775;46.994;15.498;2022-12-07T14:57:10;8.10;99.90
1988;DHT22;12775;46.994;15.498;2022-12-07T14:59:38;8.10;99.90
1988;DHT22;12775;46.994;15.498;2022-12-07T15:02:05;8.00;99.90
1988;DHT22;12775;46.994;15.498;2022-12-07T15:04:32;7.90;99.90
1988;DHT22;12775;46.994;15.498;2022-12-07T15:07:01;7.90;99.90
1988;DHT22;12775;46.994;15.498;2022-12-07T15:09:27;7.90;99.90
1988;DHT22;12775;46.994;15.498;2022-12-07T15:11:54;7.90;99.90
1988;DHT22;12775;46.994;15.498;2022-12-07T15:14:22;7.90;99.90
1988;DHT22;12775;46.994;15.498;2022-12-07T15:16:49;7.80;99.90
1988;DHT22;12775;46.994;15.498;2022-12-07T15:19:18;7.80;99.90
1988;DHT22;12775;46.994;15.498;2022-12-07T15:21:45;7.70;99.90
1988;DHT22;12775;46.994;15.498;2022-12-07T15:24:12;7.70;99.90
1988;DHT22;12775;46.994;15.498;2022-12-07T15:26:39;7.60;99.90
1988;DHT22;12775;46.994;15.498;2022-12-07T15:29:07;7.60;99.90
1988;DHT22;12775;46.994;15.498;2022-12-07T15:31:35;7.60;99.90
1988;DHT22;12775;46.994;15.498;2022-12-07T15:34:02;7.60;99.90
1988;DHT22;12775;46.994;15.498;2022-12-07T15:36:30;7.60;99.90
1988;DHT22;12775;46.994;15.498;2022-12-07T15:38:58;7.70;99.90
1988;DHT22;12775;46.994;15.498;2022-12-07T15:41:25;7.70;99.90
1988;DHT22;12775;46.994;15.498;2022-12-07T15:43:52;7.70;99.90
1988;DHT22;12775;46.994;15.498;2022-12-07T15:46:32;7.70;99.90
1988;DHT22;12775;46.994;15.498;2022-12-07T15:48:59;7.70;99.90
1988;DHT22;12775;46.994;15.498;2022-12-07T15:51:26;7.80;99.90
1988;DHT22;12775;46.994;15.498;2022-12-07T15:53:53;7.70;99.90
1988;DHT22;12775;46.994;15.498;2022-12-07T15:56:21;7.70;99.90
1988;DHT22;12775;46.994;15.498;2022-12-07T15:58:48;7.70;99.90
1988;DHT22;12775;46.994;15.498;2022-12-07T16:01:16;7.60;99.90
1988;DHT22;12775;46.994;15.498;2022-12-07T16:03:43;7.60;99.90
1988;DHT22;12775;46.994;15.498;2022-12-07T16:06:10;7.50;99.90
1988;DHT22;12775;46.994;15.498;2022-12-07T16:08:41;7.50;99.90
1988;DHT22;12775;46.994;15.498;2022-12-07T16:11:05;7.40;99.90
1988;DHT22;12775;46.994;15.498;2022-12-07T16:13:33;7.40;99.90
1988;DHT22;12775;46.994;15.498;2022-12-07T16:16:04;7.40;99.90
1988;DHT22;12775;46.994;15.498;2022-12-07T16:18:30;7.40;99.90
1988;DHT22;12775;46.994;15.498;2022-12-07T16:20:58;7.40;99.90
1988;DHT22;12775;46.994;15.498;2022-12-07T16:23:26;7.40;99.90
1988;DHT22;12775;46.994;15.498;2022-12-07T16:25:53;7.40;99.90
1988;DHT22;12775;46.994;15.498;2022-12-07T16:28:20;7.40;99.90
1988;DHT22;12775;46.994;15.498;2022-12-07T16:30:47;7.40;99.90
1988;DHT22;12775;46.994;15.498;2022-12-07T16:33:15;7.40;99.90
1988;DHT22;12775;46.994;15.498;2022-12-07T16:35:42;7.40;99.90